sensor_id;sensor_type;location;lat;lon;timestamp;P1;durP1;ratioP1;P2;durP2;ratioP2
77598;SDS011;66758;52.078;5.070;2024-03-08T00:01:36;34.40;;;15.47;;
77598;SDS011;66758;52.078;5.070;2024-03-08T00:04:01;30.95;;;15.75;;
77598;SDS011;66758;52.078;5.070;2024-03-08T00:06:27;24.65;;;12.55;;
77598;SDS011;66758;52.078;5.070;2024-03-08T00:08:53;30.23;;;14.33;;
77598;SDS011;66758;52.078;5.070;2024-03-08T00:11:18;29.03;;;13.70;;
77598;SDS011;66758;52.078;5.070;2024-03-08T00:13:43;26.50;;;13.73;;
77598;SDS011;66758;52.078;5.070;2024-03-08T00:16:10;32.30;;;14.05;;
77598;SDS011;66758;52.078;5.070;2024-03-08T00:18:35;31.40;;;14.93;;
77598;SDS011;66758;52.078;5.070;2024-03-08T00:21:00;29.83;;;13.67;;
77598;SDS011;66758;52.078;5.070;2024-03-08T00:23:26;29.60;;;13.77;;
77598;SDS011;66758;52.078;5.070;2024-03-08T00:25:51;29.97;;;15.47;;
77598;SDS011;66758;52.078;5.070;2024-03-08T00:28:16;32.87;;;13.87;;
77598;SDS011;66758;52.078;5.070;2024-03-08T00:30:44;30.05;;;14.15;;
77598;SDS011;66758;52.078;5.070;2024-03-08T00:33:10;28.07;;;13.37;;
77598;SDS011;66758;52.078;5.070;2024-03-08T00:35:35;32.37;;;14.73;;
77598;SDS011;66758;52.078;5.070;2024-03-08T00:38:01;29.30;;;14.60;;
77598;SDS011;66758;52.078;5.070;2024-03-08T00:40:26;36.20;;;16.50;;
77598;SDS011;66758;52.078;5.070;2024-03-08T00:42:53;33.55;;;15.02;;
77598;SDS011;66758;52.078;5.070;2024-03-08T00:45:18;30.97;;;14.30;;
77598;SDS011;66758;52.078;5.070;2024-03-08T00:47:43;33.83;;;15.27;;
77598;SDS011;66758;52.078;5.070;2024-03-08T00:50:09;34.20;;;15.13;;
77598;SDS011;66758;52.078;5.070;2024-03-08T00:52:34;27.58;;;13.80;;
77598;SDS011;66758;52.078;5.070;2024-03-08T00:55:00;27.63;;;13.37;;
77598;SDS011;66758;52.078;5.070;2024-03-08T00:57:26;32.93;;;15.87;;
77598;SDS011;66758;52.078;5.070;2024-03-08T00:59:52;27.90;;;13.73;;
77598;SDS011;66758;52.078;5.070;2024-03-08T01:02:18;28.87;;;14.57;;
77598;SDS011;66758;52.078;5.070;2024-03-08T01:04:45;32.23;;;14.40;;
77598;SDS011;66758;52.078;5.070;2024-03-08T01:07:13;32.27;;;14.07;;
77598;SDS011;66758;52.078;5.070;2024-03-08T01:09:39;31.63;;;15.90;;
77598;SDS011;66758;52.078;5.070;2024-03-08T01:12:04;28.70;;;14.27;;
77598;SDS011;66758;52.078;5.070;2024-03-08T01:14:32;35.75;;;16.67;;
77598;SDS011;66758;52.078;5.070;2024-03-08T01:16:58;29.98;;;13.30;;
77598;SDS011;66758;52.078;5.070;2024-03-08T01:19:23;36.43;;;17.40;;
77598;SDS011;66758;52.078;5.070;2024-03-08T01:21:50;27.58;;;13.45;;
77598;SDS011;66758;52.078;5.070;2024-03-08T01:24:16;28.02;;;12.45;;
77598;SDS011;66758;52.078;5.070;2024-03-08T01:26:42;31.83;;;14.43;;
77598;SDS011;66758;52.078;5.070;2024-03-08T01:29:07;27.47;;;14.30;;
77598;SDS011;66758;52.078;5.070;2024-03-08T01:31:33;28.92;;;13.27;;
77598;SDS011;66758;52.078;5.070;2024-03-08T01:33:58;30.03;;;13.10;;
77598;SDS011;66758;52.078;5.070;2024-03-08T01:36:24;27.97;;;13.57;;
77598;SDS011;66758;52.078;5.070;2024-03-08T01:38:50;29.60;;;13.73;;
77598;SDS011;66758;52.078;5.070;2024-03-08T01:41:15;33.50;;;14.67;;
77598;SDS011;66758;52.078;5.070;2024-03-08T01:43:42;30.33;;;13.82;;
77598;SDS011;66758;52.078;5.070;2024-03-08T01:46:08;33.33;;;15.40;;
77598;SDS011;66758;52.078;5.070;2024-03-08T01:48:35;31.17;;;13.77;;
77598;SDS011;66758;52.078;5.070;2024-03-08T01:51:01;29.60;;;15.07;;
77598;SDS011;66758;52.078;5.070;2024-03-08T01:53:33;29.23;;;13.67;;
77598;SDS011;66758;52.078;5.070;2024-03-08T01:55:59;34.00;;;15.87;;
77598;SDS011;66758;52.078;5.070;2024-03-08T01:58:27;29.30;;;14.13;;
77598;SDS011;66758;52.078;5.070;2024-03-08T02:00:53;27.10;;;13.10;;
77598;SDS011;66758;52.078;5.070;2024-03-08T02:03:20;35.33;;;15.15;;
77598;SDS011;66758;52.078;5.070;2024-03-08T02:05:47;30.40;;;14.47;;
77598;SDS011;66758;52.078;5.070;2024-03-08T02:08:12;32.17;;;13.80;;
77598;SDS011;66758;52.078;5.070;2024-03-08T02:10:43;32.83;;;16.27;;
77598;SDS011;66758;52.078;5.070;2024-03-08T02:13:09;29.88;;;14.48;;
77598;SDS011;66758;52.078;5.070;2024-03-08T02:15:50;30.80;;;14.57;;
77598;SDS011;66758;52.078;5.070;2024-03-08T02:18:16;29.80;;;14.23;;
77598;SDS011;66758;52.078;5.070;2024-03-08T02:20:42;27.08;;;13.93;;
77598;SDS011;66758;52.078;5.070;2024-03-08T02:23:07;32.83;;;15.47;;
77598;SDS011;66758;52.078;5.070;2024-03-08T02:25:33;30.07;;;14.73;;
77598;SDS011;66758;52.078;5.070;2024-03-08T02:27:58;29.37;;;14.63;;
77598;SDS011;66758;52.078;5.070;2024-03-08T02:30:24;26.23;;;12.90;;
77598;SDS011;66758;52.078;5.070;2024-03-08T02:32:54;31.70;;;14.10;;
77598;SDS011;66758;52.078;5.070;2024-03-08T02:35:20;28.67;;;15.40;;
77598;SDS011;66758;52.078;5.070;2024-03-08T02:37:45;34.30;;;17.13;;
77598;SDS011;66758;52.078;5.070;2024-03-08T02:40:12;28.23;;;13.75;;
77598;SDS011;66758;52.078;5.070;2024-03-08T02:42:38;32.73;;;14.57;;
77598;SDS011;66758;52.078;5.070;2024-03-08T02:45:03;31.30;;;15.10;;
77598;SDS011;66758;52.078;5.070;2024-03-08T02:47:30;32.47;;;15.43;;
77598;SDS011;66758;52.078;5.070;2024-03-08T02:49:56;26.08;;;13.75;;
77598;SDS011;66758;52.078;5.070;2024-03-08T02:52:21;30.97;;;14.53;;
77598;SDS011;66758;52.078;5.070;2024-03-08T02:54:47;30.50;;;16.33;;
77598;SDS011;66758;52.078;5.070;2024-03-08T02:57:13;31.90;;;16.10;;
77598;SDS011;66758;52.078;5.070;2024-03-08T02:59:41;34.08;;;15.20;;
77598;SDS011;66758;52.078;5.070;2024-03-08T03:02:06;32.23;;;15.63;;
77598;SDS011;66758;52.078;5.070;2024-03-08T03:04:32;30.58;;;15.27;;
77598;SDS011;66758;52.078;5.070;2024-03-08T03:06:59;31.60;;;14.53;;
77598;SDS011;66758;52.078;5.070;2024-03-08T03:09:25;31.20;;;15.15;;
77598;SDS011;66758;52.078;5.070;2024-03-08T03:11:52;29.40;;;14.67;;
77598;SDS011;66758;52.078;5.070;2024-03-08T03:14:18;29.88;;;15.95;;
77598;SDS011;66758;52.078;5.070;2024-03-08T03:16:44;31.52;;;16.75;;
77598;SDS011;66758;52.078;5.070;2024-03-08T03:19:11;29.63;;;14.73;;
77598;SDS011;66758;52.078;5.070;2024-03-08T03:21:36;28.87;;;15.93;;
77598;SDS011;66758;52.078;5.070;2024-03-08T03:24:03;31.50;;;15.13;;
77598;SDS011;66758;52.078;5.070;2024-03-08T03:26:30;34.53;;;14.68;;
77598;SDS011;66758;52.078;5.070;2024-03-08T03:28:56;27.65;;;15.23;;
77598;SDS011;66758;52.078;5.070;2024-03-08T03:31:22;31.33;;;15.10;;
77598;SDS011;66758;52.078;5.070;2024-03-08T03:33:49;29.08;;;15.38;;
77598;SDS011;66758;52.078;5.070;2024-03-08T03:36:18;26.17;;;12.73;;
77598;SDS011;66758;52.078;5.070;2024-03-08T03:38:44;33.95;;;15.27;;
77598;SDS011;66758;52.078;5.070;2024-03-08T03:41:09;29.90;;;15.53;;
77598;SDS011;66758;52.078;5.070;2024-03-08T03:43:39;33.08;;;16.60;;
77598;SDS011;66758;52.078;5.070;2024-03-08T03:46:07;31.70;;;14.83;;
77598;SDS011;66758;52.078;5.070;2024-03-08T03:48:35;29.57;;;15.43;;
77598;SDS011;66758;52.078;5.070;2024-03-08T03:51:03;30.52;;;16.25;;
77598;SDS011;66758;52.078;5.070;2024-03-08T03:53:29;32.07;;;14.93;;
77598;SDS011;66758;52.078;5.070;2024-03-08T03:55:54;28.00;;;14.05;;
77598;SDS011;66758;52.078;5.070;2024-03-08T03:58:19;27.83;;;14.70;;
77598;SDS011;66758;52.078;5.070;2024-03-08T04:00:53;33.07;;;16.37;;
77598;SDS011;66758;52.078;5.070;2024-03-08T04:03:18;28.52;;;15.00;;
77598;SDS011;66758;52.078;5.070;2024-03-08T04:05:44;31.37;;;15.53;;
77598;SDS011;66758;52.078;5.070;2024-03-08T04:08:11;31.42;;;16.25;;
77598;SDS011;66758;52.078;5.070;2024-03-08T04:10:36;29.47;;;14.77;;
77598;SDS011;66758;52.078;5.070;2024-03-08T04:13:01;27.70;;;14.80;;
77598;SDS011;66758;52.078;5.070;2024-03-08T04:15:28;35.53;;;16.02;;
77598;SDS011;66758;52.078;5.070;2024-03-08T04:17:53;34.13;;;14.63;;
77598;SDS011;66758;52.078;5.070;2024-03-08T04:20:20;35.17;;;15.88;;
77598;SDS011;66758;52.078;5.070;2024-03-08T04:22:46;29.13;;;13.38;;
77598;SDS011;66758;52.078;5.070;2024-03-08T04:25:15;29.75;;;14.50;;
77598;SDS011;66758;52.078;5.070;2024-03-08T04:27:41;28.87;;;14.33;;
77598;SDS011;66758;52.078;5.070;2024-03-08T04:30:06;29.75;;;15.10;;
77598;SDS011;66758;52.078;5.070;2024-03-08T04:32:34;29.02;;;14.63;;
77598;SDS011;66758;52.078;5.070;2024-03-08T04:35:01;28.40;;;13.83;;
77598;SDS011;66758;52.078;5.070;2024-03-08T04:37:26;30.55;;;14.38;;
77598;SDS011;66758;52.078;5.070;2024-03-08T04:39:54;25.83;;;13.53;;
77598;SDS011;66758;52.078;5.070;2024-03-08T04:42:19;27.42;;;14.40;;
77598;SDS011;66758;52.078;5.070;2024-03-08T04:44:45;31.10;;;15.43;;
77598;SDS011;66758;52.078;5.070;2024-03-08T04:47:10;28.70;;;14.90;;
77598;SDS011;66758;52.078;5.070;2024-03-08T04:49:36;31.07;;;15.50;;
77598;SDS011;66758;52.078;5.070;2024-03-08T04:52:04;28.43;;;15.33;;
77598;SDS011;66758;52.078;5.070;2024-03-08T04:54:30;33.50;;;16.00;;
77598;SDS011;66758;52.078;5.070;2024-03-08T04:56:57;29.25;;;15.25;;
77598;SDS011;66758;52.078;5.070;2024-03-08T04:59:22;30.02;;;14.55;;
77598;SDS011;66758;52.078;5.070;2024-03-08T05:01:47;33.43;;;16.97;;
77598;SDS011;66758;52.078;5.070;2024-03-08T05:04:13;30.87;;;15.30;;
77598;SDS011;66758;52.078;5.070;2024-03-08T05:06:38;30.67;;;14.97;;
77598;SDS011;66758;52.078;5.070;2024-03-08T05:09:04;29.63;;;15.77;;
77598;SDS011;66758;52.078;5.070;2024-03-08T05:11:42;32.00;;;15.07;;
77598;SDS011;66758;52.078;5.070;2024-03-08T05:14:08;31.10;;;15.05;;
77598;SDS011;66758;52.078;5.070;2024-03-08T05:16:34;26.90;;;13.87;;
77598;SDS011;66758;52.078;5.070;2024-03-08T05:19:01;36.60;;;17.52;;
77598;SDS011;66758;52.078;5.070;2024-03-08T05:21:26;28.93;;;15.67;;
77598;SDS011;66758;52.078;5.070;2024-03-08T05:23:54;33.28;;;15.60;;
77598;SDS011;66758;52.078;5.070;2024-03-08T05:26:19;29.07;;;14.53;;
77598;SDS011;66758;52.078;5.070;2024-03-08T05:28:44;28.67;;;13.77;;
77598;SDS011;66758;52.078;5.070;2024-03-08T05:31:10;33.03;;;15.40;;
77598;SDS011;66758;52.078;5.070;2024-03-08T05:33:35;26.17;;;12.20;;
77598;SDS011;66758;52.078;5.070;2024-03-08T05:36:01;36.13;;;15.70;;
77598;SDS011;66758;52.078;5.070;2024-03-08T05:38:27;30.42;;;15.40;;
77598;SDS011;66758;52.078;5.070;2024-03-08T05:40:53;29.50;;;15.50;;
77598;SDS011;66758;52.078;5.070;2024-03-08T05:43:19;30.13;;;14.73;;
77598;SDS011;66758;52.078;5.070;2024-03-08T05:45:46;32.97;;;15.63;;
77598;SDS011;66758;52.078;5.070;2024-03-08T05:48:13;30.98;;;16.88;;
77598;SDS011;66758;52.078;5.070;2024-03-08T05:50:38;27.90;;;13.65;;
77598;SDS011;66758;52.078;5.070;2024-03-08T05:53:04;29.40;;;14.07;;
77598;SDS011;66758;52.078;5.070;2024-03-08T05:55:32;28.75;;;15.18;;
77598;SDS011;66758;52.078;5.070;2024-03-08T05:58:02;30.60;;;16.08;;
77598;SDS011;66758;52.078;5.070;2024-03-08T06:00:29;29.63;;;14.73;;
77598;SDS011;66758;52.078;5.070;2024-03-08T06:02:56;31.13;;;16.20;;
77598;SDS011;66758;52.078;5.070;2024-03-08T06:05:23;32.85;;;15.07;;
77598;SDS011;66758;52.078;5.070;2024-03-08T06:07:49;32.50;;;15.45;;
77598;SDS011;66758;52.078;5.070;2024-03-08T06:10:18;31.75;;;16.63;;
77598;SDS011;66758;52.078;5.070;2024-03-08T06:12:43;32.83;;;15.47;;
77598;SDS011;66758;52.078;5.070;2024-03-08T06:15:10;26.52;;;13.63;;
77598;SDS011;66758;52.078;5.070;2024-03-08T06:17:40;28.33;;;16.17;;
77598;SDS011;66758;52.078;5.070;2024-03-08T06:20:05;28.83;;;14.57;;
77598;SDS011;66758;52.078;5.070;2024-03-08T06:22:37;33.33;;;15.73;;
77598;SDS011;66758;52.078;5.070;2024-03-08T06:25:02;32.13;;;15.98;;
77598;SDS011;66758;52.078;5.070;2024-03-08T06:27:27;30.67;;;15.67;;
77598;SDS011;66758;52.078;5.070;2024-03-08T06:29:53;24.87;;;13.93;;
77598;SDS011;66758;52.078;5.070;2024-03-08T06:32:19;35.35;;;16.52;;
77598;SDS011;66758;52.078;5.070;2024-03-08T06:34:44;28.70;;;14.63;;
77598;SDS011;66758;52.078;5.070;2024-03-08T06:37:09;28.27;;;13.63;;
77598;SDS011;66758;52.078;5.070;2024-03-08T06:39:35;33.88;;;16.20;;
77598;SDS011;66758;52.078;5.070;2024-03-08T06:42:01;35.37;;;15.63;;
77598;SDS011;66758;52.078;5.070;2024-03-08T06:44:27;33.13;;;16.58;;
77598;SDS011;66758;52.078;5.070;2024-03-08T06:46:52;29.73;;;15.43;;
77598;SDS011;66758;52.078;5.070;2024-03-08T06:49:17;30.83;;;15.70;;
77598;SDS011;66758;52.078;5.070;2024-03-08T06:51:43;29.23;;;14.80;;
77598;SDS011;66758;52.078;5.070;2024-03-08T06:54:08;31.23;;;15.87;;
77598;SDS011;66758;52.078;5.070;2024-03-08T06:56:37;33.33;;;17.33;;
77598;SDS011;66758;52.078;5.070;2024-03-08T06:59:05;29.95;;;15.43;;
77598;SDS011;66758;52.078;5.070;2024-03-08T07:01:35;33.53;;;16.53;;
77598;SDS011;66758;52.078;5.070;2024-03-08T07:04:01;31.58;;;15.95;;
77598;SDS011;66758;52.078;5.070;2024-03-08T07:06:30;29.95;;;16.35;;
77598;SDS011;66758;52.078;5.070;2024-03-08T07:08:59;33.05;;;16.17;;
77598;SDS011;66758;52.078;5.070;2024-03-08T07:11:25;33.57;;;15.73;;
77598;SDS011;66758;52.078;5.070;2024-03-08T07:13:50;32.00;;;17.43;;
77598;SDS011;66758;52.078;5.070;2024-03-08T07:16:15;26.50;;;13.87;;
77598;SDS011;66758;52.078;5.070;2024-03-08T07:18:41;31.40;;;16.23;;
77598;SDS011;66758;52.078;5.070;2024-03-08T07:21:08;34.67;;;16.27;;
77598;SDS011;66758;52.078;5.070;2024-03-08T07:23:35;30.25;;;16.17;;
77598;SDS011;66758;52.078;5.070;2024-03-08T07:26:20;34.22;;;17.13;;
77598;SDS011;66758;52.078;5.070;2024-03-08T07:28:45;28.73;;;13.93;;
77598;SDS011;66758;52.078;5.070;2024-03-08T07:31:11;34.10;;;16.47;;
77598;SDS011;66758;52.078;5.070;2024-03-08T07:33:37;32.42;;;16.08;;
77598;SDS011;66758;52.078;5.070;2024-03-08T07:36:03;24.00;;;11.95;;
77598;SDS011;66758;52.078;5.070;2024-03-08T07:38:29;34.85;;;17.65;;
77598;SDS011;66758;52.078;5.070;2024-03-08T07:40:54;29.70;;;16.07;;
77598;SDS011;66758;52.078;5.070;2024-03-08T07:43:22;33.33;;;15.98;;
77598;SDS011;66758;52.078;5.070;2024-03-08T07:45:47;28.73;;;14.70;;
77598;SDS011;66758;52.078;5.070;2024-03-08T07:48:12;29.50;;;15.20;;
77598;SDS011;66758;52.078;5.070;2024-03-08T07:50:40;31.10;;;14.97;;
77598;SDS011;66758;52.078;5.070;2024-03-08T07:53:06;29.33;;;15.60;;
77598;SDS011;66758;52.078;5.070;2024-03-08T07:55:35;33.80;;;17.55;;
77598;SDS011;66758;52.078;5.070;2024-03-08T07:58:04;34.42;;;15.77;;
77598;SDS011;66758;52.078;5.070;2024-03-08T08:00:32;30.47;;;15.30;;
77598;SDS011;66758;52.078;5.070;2024-03-08T08:02:57;34.95;;;17.75;;
77598;SDS011;66758;52.078;5.070;2024-03-08T08:05:23;28.20;;;15.33;;
77598;SDS011;66758;52.078;5.070;2024-03-08T08:07:48;29.52;;;16.20;;
77598;SDS011;66758;52.078;5.070;2024-03-08T08:10:14;24.13;;;13.90;;
77598;SDS011;66758;52.078;5.070;2024-03-08T08:12:50;31.67;;;15.88;;
77598;SDS011;66758;52.078;5.070;2024-03-08T08:15:16;29.05;;;16.55;;
77598;SDS011;66758;52.078;5.070;2024-03-08T08:17:43;31.58;;;16.80;;
77598;SDS011;66758;52.078;5.070;2024-03-08T08:20:09;27.48;;;15.85;;
77598;SDS011;66758;52.078;5.070;2024-03-08T08:22:36;27.03;;;15.40;;
77598;SDS011;66758;52.078;5.070;2024-03-08T08:25:03;31.35;;;16.75;;
77598;SDS011;66758;52.078;5.070;2024-03-08T08:27:29;30.80;;;16.40;;
77598;SDS011;66758;52.078;5.070;2024-03-08T08:29:54;31.15;;;15.23;;
77598;SDS011;66758;52.078;5.070;2024-03-08T08:32:21;34.07;;;17.63;;
77598;SDS011;66758;52.078;5.070;2024-03-08T08:34:46;27.75;;;15.93;;
77598;SDS011;66758;52.078;5.070;2024-03-08T08:37:11;25.27;;;14.40;;
77598;SDS011;66758;52.078;5.070;2024-03-08T08:39:37;28.60;;;16.00;;
77598;SDS011;66758;52.078;5.070;2024-03-08T08:42:03;26.80;;;14.82;;
77598;SDS011;66758;52.078;5.070;2024-03-08T08:44:28;26.77;;;15.80;;
77598;SDS011;66758;52.078;5.070;2024-03-08T08:46:54;27.67;;;15.07;;
77598;SDS011;66758;52.078;5.070;2024-03-08T08:49:19;22.92;;;13.48;;
77598;SDS011;66758;52.078;5.070;2024-03-08T08:51:49;25.83;;;15.07;;
77598;SDS011;66758;52.078;5.070;2024-03-08T08:54:14;24.70;;;15.00;;
77598;SDS011;66758;52.078;5.070;2024-03-08T08:56:42;27.98;;;15.90;;
77598;SDS011;66758;52.078;5.070;2024-03-08T08:59:08;28.75;;;15.60;;
77598;SDS011;66758;52.078;5.070;2024-03-08T09:01:34;28.63;;;16.10;;
77598;SDS011;66758;52.078;5.070;2024-03-08T09:03:59;27.53;;;14.93;;
77598;SDS011;66758;52.078;5.070;2024-03-08T09:06:24;28.27;;;13.80;;
77598;SDS011;66758;52.078;5.070;2024-03-08T09:08:50;24.70;;;14.82;;
77598;SDS011;66758;52.078;5.070;2024-03-08T09:11:16;25.77;;;14.47;;
77598;SDS011;66758;52.078;5.070;2024-03-08T09:13:44;23.40;;;15.20;;
77598;SDS011;66758;52.078;5.070;2024-03-08T09:16:09;24.92;;;15.13;;
77598;SDS011;66758;52.078;5.070;2024-03-08T09:18:35;28.75;;;14.68;;
77598;SDS011;66758;52.078;5.070;2024-03-08T09:21:00;26.17;;;14.80;;
77598;SDS011;66758;52.078;5.070;2024-03-08T09:23:26;25.30;;;13.67;;
77598;SDS011;66758;52.078;5.070;2024-03-08T09:25:55;22.20;;;14.55;;
77598;SDS011;66758;52.078;5.070;2024-03-08T09:28:22;26.17;;;14.93;;
77598;SDS011;66758;52.078;5.070;2024-03-08T09:30:47;26.30;;;15.77;;
77598;SDS011;66758;52.078;5.070;2024-03-08T09:33:13;23.30;;;14.60;;
77598;SDS011;66758;52.078;5.070;2024-03-08T09:35:42;27.33;;;15.45;;
77598;SDS011;66758;52.078;5.070;2024-03-08T09:38:07;24.63;;;14.90;;
77598;SDS011;66758;52.078;5.070;2024-03-08T09:40:38;24.38;;;14.73;;
77598;SDS011;66758;52.078;5.070;2024-03-08T09:43:03;25.40;;;15.20;;
77598;SDS011;66758;52.078;5.070;2024-03-08T09:45:29;23.17;;;13.80;;
77598;SDS011;66758;52.078;5.070;2024-03-08T09:47:57;24.15;;;14.73;;
77598;SDS011;66758;52.078;5.070;2024-03-08T09:50:23;28.25;;;14.98;;
77598;SDS011;66758;52.078;5.070;2024-03-08T09:52:49;27.17;;;15.20;;
77598;SDS011;66758;52.078;5.070;2024-03-08T09:55:14;22.45;;;13.45;;
77598;SDS011;66758;52.078;5.070;2024-03-08T09:57:42;28.75;;;14.90;;
77598;SDS011;66758;52.078;5.070;2024-03-08T10:00:28;24.55;;;12.63;;
77598;SDS011;66758;52.078;5.070;2024-03-08T10:02:53;24.50;;;14.50;;
77598;SDS011;66758;52.078;5.070;2024-03-08T10:05:19;24.33;;;13.90;;
77598;SDS011;66758;52.078;5.070;2024-03-08T10:07:45;22.60;;;14.90;;
77598;SDS011;66758;52.078;5.070;2024-03-08T10:10:10;23.67;;;13.57;;
77598;SDS011;66758;52.078;5.070;2024-03-08T10:12:37;22.75;;;14.45;;
77598;SDS011;66758;52.078;5.070;2024-03-08T10:15:03;23.50;;;13.37;;
77598;SDS011;66758;52.078;5.070;2024-03-08T10:17:30;24.15;;;14.70;;
77598;SDS011;66758;52.078;5.070;2024-03-08T10:19:57;25.63;;;14.30;;
77598;SDS011;66758;52.078;5.070;2024-03-08T10:22:25;26.42;;;15.27;;
77598;SDS011;66758;52.078;5.070;2024-03-08T10:24:50;23.95;;;15.55;;
77598;SDS011;66758;52.078;5.070;2024-03-08T10:27:18;28.43;;;14.60;;
77598;SDS011;66758;52.078;5.070;2024-03-08T10:29:47;21.35;;;13.38;;
77598;SDS011;66758;52.078;5.070;2024-03-08T10:32:13;24.20;;;14.80;;
77598;SDS011;66758;52.078;5.070;2024-03-08T10:34:38;22.90;;;14.48;;
77598;SDS011;66758;52.078;5.070;2024-03-08T10:37:04;24.30;;;13.63;;
77598;SDS011;66758;52.078;5.070;2024-03-08T10:39:37;23.63;;;15.25;;
77598;SDS011;66758;52.078;5.070;2024-03-08T10:42:02;21.33;;;13.43;;
77598;SDS011;66758;52.078;5.070;2024-03-08T10:47:01;23.88;;;13.00;;
77598;SDS011;66758;52.078;5.070;2024-03-08T10:49:37;21.23;;;13.68;;
77598;SDS011;66758;52.078;5.070;2024-03-08T10:52:04;24.50;;;14.37;;
77598;SDS011;66758;52.078;5.070;2024-03-08T10:54:30;23.13;;;14.35;;
77598;SDS011;66758;52.078;5.070;2024-03-08T10:56:57;19.90;;;13.63;;
77598;SDS011;66758;52.078;5.070;2024-03-08T10:59:22;21.03;;;13.77;;
77598;SDS011;66758;52.078;5.070;2024-03-08T11:01:54;22.20;;;14.00;;
77598;SDS011;66758;52.078;5.070;2024-03-08T11:04:20;21.10;;;12.80;;
77598;SDS011;66758;52.078;5.070;2024-03-08T11:06:48;21.58;;;12.98;;
77598;SDS011;66758;52.078;5.070;2024-03-08T11:09:29;19.30;;;11.45;;
77598;SDS011;66758;52.078;5.070;2024-03-08T11:14:44;18.42;;;10.88;;
77598;SDS011;66758;52.078;5.070;2024-03-08T11:17:13;19.20;;;11.18;;
77598;SDS011;66758;52.078;5.070;2024-03-08T11:19:38;19.83;;;12.57;;
77598;SDS011;66758;52.078;5.070;2024-03-08T11:22:13;18.63;;;12.77;;
77598;SDS011;66758;52.078;5.070;2024-03-08T11:24:45;19.73;;;12.77;;
77598;SDS011;66758;52.078;5.070;2024-03-08T11:27:10;18.83;;;11.93;;
77598;SDS011;66758;52.078;5.070;2024-03-08T11:29:37;20.93;;;11.53;;
77598;SDS011;66758;52.078;5.070;2024-03-08T11:34:33;20.60;;;11.52;;
77598;SDS011;66758;52.078;5.070;2024-03-08T11:36:59;17.73;;;11.50;;
77598;SDS011;66758;52.078;5.070;2024-03-08T11:39:25;18.27;;;11.73;;
77598;SDS011;66758;52.078;5.070;2024-03-08T11:41:51;15.40;;;10.55;;
77598;SDS011;66758;52.078;5.070;2024-03-08T11:44:17;19.27;;;10.77;;
77598;SDS011;66758;52.078;5.070;2024-03-08T11:46:43;18.50;;;11.73;;
77598;SDS011;66758;52.078;5.070;2024-03-08T11:49:16;19.52;;;12.02;;
77598;SDS011;66758;52.078;5.070;2024-03-08T11:51:42;19.20;;;11.63;;
77598;SDS011;66758;52.078;5.070;2024-03-08T11:54:12;16.10;;;11.05;;
77598;SDS011;66758;52.078;5.070;2024-03-08T11:56:38;30.70;;;12.23;;
77598;SDS011;66758;52.078;5.070;2024-03-08T11:59:03;16.23;;;10.30;;
77598;SDS011;66758;52.078;5.070;2024-03-08T12:01:30;14.67;;;9.43;;
77598;SDS011;66758;52.078;5.070;2024-03-08T12:03:56;17.55;;;9.50;;
77598;SDS011;66758;52.078;5.070;2024-03-08T12:06:35;20.17;;;10.93;;
77598;SDS011;66758;52.078;5.070;2024-03-08T12:09:04;16.48;;;9.65;;
77598;SDS011;66758;52.078;5.070;2024-03-08T12:11:29;24.60;;;10.03;;
77598;SDS011;66758;52.078;5.070;2024-03-08T12:13:56;17.48;;;9.65;;
77598;SDS011;66758;52.078;5.070;2024-03-08T12:16:23;14.82;;;9.13;;
77598;SDS011;66758;52.078;5.070;2024-03-08T12:18:50;17.50;;;10.57;;
77598;SDS011;66758;52.078;5.070;2024-03-08T12:21:17;15.32;;;9.82;;
77598;SDS011;66758;52.078;5.070;2024-03-08T12:23:47;16.95;;;9.75;;
77598;SDS011;66758;52.078;5.070;2024-03-08T12:26:16;18.17;;;9.77;;
77598;SDS011;66758;52.078;5.070;2024-03-08T12:28:42;19.38;;;10.38;;
77598;SDS011;66758;52.078;5.070;2024-03-08T12:31:11;16.53;;;10.67;;
77598;SDS011;66758;52.078;5.070;2024-03-08T12:33:49;14.43;;;8.75;;
77598;SDS011;66758;52.078;5.070;2024-03-08T12:36:15;17.65;;;10.65;;
77598;SDS011;66758;52.078;5.070;2024-03-08T12:38:43;19.55;;;11.07;;
77598;SDS011;66758;52.078;5.070;2024-03-08T12:41:08;19.45;;;11.18;;
77598;SDS011;66758;52.078;5.070;2024-03-08T12:43:34;16.70;;;10.47;;
77598;SDS011;66758;52.078;5.070;2024-03-08T12:45:59;19.27;;;11.07;;
77598;SDS011;66758;52.078;5.070;2024-03-08T12:48:24;17.40;;;11.27;;
77598;SDS011;66758;52.078;5.070;2024-03-08T12:50:50;23.07;;;11.90;;
77598;SDS011;66758;52.078;5.070;2024-03-08T12:53:17;16.55;;;10.82;;
77598;SDS011;66758;52.078;5.070;2024-03-08T12:55:42;19.20;;;10.50;;
77598;SDS011;66758;52.078;5.070;2024-03-08T12:58:08;17.70;;;11.00;;
77598;SDS011;66758;52.078;5.070;2024-03-08T13:00:34;20.00;;;10.80;;
77598;SDS011;66758;52.078;5.070;2024-03-08T13:03:01;21.58;;;11.43;;
77598;SDS011;66758;52.078;5.070;2024-03-08T13:05:27;18.25;;;10.48;;
77598;SDS011;66758;52.078;5.070;2024-03-08T13:07:52;18.27;;;10.33;;
77598;SDS011;66758;52.078;5.070;2024-03-08T13:10:19;18.98;;;10.77;;
77598;SDS011;66758;52.078;5.070;2024-03-08T13:12:45;17.23;;;11.23;;
77598;SDS011;66758;52.078;5.070;2024-03-08T13:15:10;22.33;;;11.93;;
77598;SDS011;66758;52.078;5.070;2024-03-08T13:17:40;18.93;;;10.33;;
77598;SDS011;66758;52.078;5.070;2024-03-08T13:20:09;20.15;;;11.70;;
77598;SDS011;66758;52.078;5.070;2024-03-08T13:22:35;19.20;;;11.40;;
77598;SDS011;66758;52.078;5.070;2024-03-08T13:25:01;19.25;;;10.88;;
77598;SDS011;66758;52.078;5.070;2024-03-08T13:27:29;25.80;;;11.55;;
77598;SDS011;66758;52.078;5.070;2024-03-08T13:29:56;22.05;;;11.40;;
77598;SDS011;66758;52.078;5.070;2024-03-08T13:32:22;25.63;;;13.57;;
77598;SDS011;66758;52.078;5.070;2024-03-08T13:34:49;19.77;;;11.82;;
77598;SDS011;66758;52.078;5.070;2024-03-08T13:37:16;19.08;;;10.35;;
77598;SDS011;66758;52.078;5.070;2024-03-08T13:39:41;20.00;;;11.23;;
77598;SDS011;66758;52.078;5.070;2024-03-08T13:42:12;18.30;;;10.95;;
77598;SDS011;66758;52.078;5.070;2024-03-08T13:44:44;20.35;;;10.95;;
77598;SDS011;66758;52.078;5.070;2024-03-08T13:47:11;20.63;;;11.00;;
77598;SDS011;66758;52.078;5.070;2024-03-08T13:49:37;19.38;;;10.73;;
77598;SDS011;66758;52.078;5.070;2024-03-08T13:52:02;19.03;;;10.60;;
77598;SDS011;66758;52.078;5.070;2024-03-08T13:54:29;18.33;;;10.95;;
77598;SDS011;66758;52.078;5.070;2024-03-08T13:56:56;18.92;;;11.25;;
77598;SDS011;66758;52.078;5.070;2024-03-08T13:59:22;22.92;;;11.82;;
77598;SDS011;66758;52.078;5.070;2024-03-08T14:01:47;21.47;;;11.10;;
77598;SDS011;66758;52.078;5.070;2024-03-08T14:04:14;18.42;;;10.70;;
77598;SDS011;66758;52.078;5.070;2024-03-08T14:06:39;18.80;;;11.23;;
77598;SDS011;66758;52.078;5.070;2024-03-08T14:09:04;21.23;;;13.07;;
77598;SDS011;66758;52.078;5.070;2024-03-08T14:11:33;20.38;;;10.93;;
77598;SDS011;66758;52.078;5.070;2024-03-08T14:13:58;19.10;;;12.17;;
77598;SDS011;66758;52.078;5.070;2024-03-08T14:16:24;20.90;;;10.87;;
77598;SDS011;66758;52.078;5.070;2024-03-08T14:18:50;20.25;;;10.38;;
77598;SDS011;66758;52.078;5.070;2024-03-08T14:21:15;17.33;;;11.13;;
77598;SDS011;66758;52.078;5.070;2024-03-08T14:23:42;19.15;;;11.43;;
77598;SDS011;66758;52.078;5.070;2024-03-08T14:26:08;22.93;;;12.33;;